Time;durP1;ratioP1;P1;durP2;ratioP2;P2;SDS_P1;SDS_P2;PMS_P1;PMS_P2;Temp;Humidity;BMP_temperature;BMP_pressure;BME280_temperature;BME280_humidity;BME280_pressure;Samples;Min_cycle;Max_cycle;Signal;HPM_P1;HPM_P2
2022/09/24 00:01:55;;;;;;;2.08;1.10;;;;;;;14.45;57.17;94627.72;5037627;28;20033;-90
2022/09/24 00:04:23;;;;;;;2.40;1.50;;;;;;;14.59;56.58;94619.84;5037699;28;20040;-90
2022/09/24 00:06:49;;;;;;;3.67;1.10;;;;;;;14.59;58.82;94631.19;5020019;28;20461;-90
2022/09/24 00:09:18;;;;;;;2.28;1.27;;;;;;;14.45;57.86;94633.75;5019716;28;20037;-90
2022/09/24 00:11:44;;;;;;;2.28;1.10;;;;;;;14.64;58.21;94632.97;5020057;28;20423;-90
2022/09/24 00:14:10;;;;;;;2.00;1.23;;;;;;;14.51;56.34;94637.91;5003164;28;20116;-90
2022/09/24 00:16:36;;;;;;;1.67;1.17;;;;;;;14.54;56.97;94632.06;5019740;28;20040;-90
2022/09/24 00:19:02;;;;;;;3.22;1.70;;;;;;;14.59;55.13;94631.19;5019558;28;20351;-90
2022/09/24 00:21:30;;;;;;;3.65;1.33;;;;;;;14.66;58.47;94630.84;5003620;28;20029;-91
2022/09/24 00:24:01;;;;;;;3.47;1.73;;;;;;;14.60;58.58;94627.50;5019921;28;20029;-91
2022/09/24 00:29:14;;;;;;;4.28;1.40;;;;;;;14.50;57.41;94623.16;5022105;28;20045;-91
2022/09/24 00:31:40;;;;;;;3.30;1.30;;;;;;;14.73;57.22;94625.22;5019538;28;20029;-90
2022/09/24 00:34:05;;;;;;;3.28;1.48;;;;;;;14.79;57.03;94629.34;5028010;28;20056;-90
2022/09/24 00:36:39;;;;;;;2.40;1.58;;;;;;;14.40;56.21;94620.66;5022800;28;20037;-90
2022/09/24 00:39:05;;;;;;;4.35;1.85;;;;;;;14.70;59.25;94618.63;5036442;28;20064;-90
2022/09/24 00:41:34;;;;;;;5.30;1.88;;;;;;;14.46;58.07;94614.22;5022752;28;20067;-89
2022/09/24 00:44:20;;;;;;;3.60;1.45;;;;;;;14.70;58.26;94616.00;5022630;28;21440;-90
2022/09/24 00:46:45;;;;;;;3.20;1.42;;;;;;;14.64;56.97;94627.72;5038526;28;20037;-90
2022/09/24 00:49:13;;;;;;;3.95;1.27;;;;;;;14.71;57.04;94617.56;5019015;28;20427;-90
2022/09/24 00:51:41;;;;;;;4.50;1.30;;;;;;;14.54;55.47;94618.88;5019091;28;20065;-90
2022/09/24 00:54:10;;;;;;;4.60;1.30;;;;;;;14.66;54.99;94607.88;5019473;28;20040;-90
2022/09/24 00:56:37;;;;;;;7.03;1.40;;;;;;;14.65;55.32;94611.59;5014375;28;20064;-91
2022/09/24 00:59:05;;;;;;;1.83;1.17;;;;;;;14.68;55.83;94612.88;5038543;28;20075;-90
2022/09/24 01:01:31;;;;;;;2.85;1.20;;;;;;;14.61;55.06;94609.81;5022791;28;20331;-90
2022/09/24 01:03:57;;;;;;;3.47;1.23;;;;;;;14.59;54.43;94611.94;5022473;28;20035;-90
2022/09/24 01:06:24;;;;;;;4.82;1.50;;;;;;;14.55;54.10;94606.44;5022341;28;20043;-91
2022/09/24 01:08:49;;;;;;;2.67;1.40;;;;;;;14.51;54.80;94611.53;5038572;28;20086;-90
2022/09/24 01:12:01;;;;;;;4.50;1.27;;;;;;;14.48;55.82;94603.41;5038984;28;20028;-90
2022/09/24 01:14:47;;;;;;;4.10;1.27;;;;;;;14.47;56.65;94602.59;4959847;28;20038;-90
2022/09/24 01:17:26;;;;;;;4.03;1.00;;;;;;;14.55;57.06;94599.34;4959898;28;20045;-90
2022/09/24 01:20:29;;;;;;;1.98;1.00;;;;;;;14.50;55.49;94596.00;5014821;28;20358;-91
2022/09/24 01:23:07;;;;;;;1.55;1.02;;;;;;;14.19;55.70;94586.66;5038732;28;20032;-90
2022/09/24 01:25:47;;;;;;;1.40;1.00;;;;;;;14.41;58.16;94587.94;5041584;28;20358;-90
2022/09/24 01:28:52;;;;;;;2.67;1.20;;;;;;;14.20;57.10;94592.72;5060497;28;20040;-90
2022/09/24 01:31:28;;;;;;;3.55;1.08;;;;;;;14.16;57.25;94589.09;5042733;28;20033;-90
2022/09/24 01:33:56;;;;;;;4.97;1.00;;;;;;;14.02;56.58;94589.00;5026670;28;20029;-91
2022/09/24 01:36:23;;;;;;;2.50;1.42;;;;;;;13.84;57.79;94578.94;5026197;28;20039;-90
2022/09/24 01:38:51;;;;;;;3.42;1.30;;;;;;;13.85;57.72;94574.44;5042738;28;20039;-90
2022/09/24 01:41:17;;;;;;;2.63;1.25;;;;;;;13.76;57.13;94571.66;5026509;28;20033;-90
2022/09/24 01:43:42;;;;;;;2.30;0.98;;;;;;;13.74;56.82;94560.63;5026104;28;20103;-90
2022/09/24 01:46:09;;;;;;;2.10;1.20;;;;;;;14.06;55.63;94555.75;5026051;28;20032;-92
2022/09/24 01:48:38;;;;;;;3.55;1.30;;;;;;;14.20;55.92;94556.63;5042206;28;20346;-91
2022/09/24 01:51:16;;;;;;;3.15;1.30;;;;;;;14.31;55.36;94553.81;5025999;28;20354;-90
2022/09/24 01:53:55;;;;;;;2.30;1.38;;;;;;;14.44;54.88;94550.47;5042344;28;20083;-91
2022/09/24 01:56:31;;;;;;;2.00;1.27;;;;;;;14.42;55.06;94550.78;5060068;28;20059;-91
2022/09/24 01:59:04;;;;;;;2.03;1.30;;;;;;;14.49;54.92;94550.41;5042083;28;20028;-91
2022/09/24 02:01:39;;;;;;;7.82;1.65;;;;;;;14.56;53.64;94542.09;5042292;28;20319;-91
2022/09/24 02:04:10;;;;;;;2.42;1.10;;;;;;;14.54;53.34;94538.97;5042137;28;20031;-90
2022/09/24 02:06:44;;;;;;;3.42;1.15;;;;;;;14.56;54.96;94537.63;5042051;28;20029;-89
2022/09/24 02:09:28;;;;;;;;;;;;;;;14.80;53.62;94541.25;5042229;28;20033;-90
2022/09/24 02:11:55;;;;;;;2.42;1.38;;;;;;;14.53;53.62;94537.41;5059771;28;19908;-91
2022/09/24 02:14:22;;;;;;;2.20;1.42;;;;;;;14.61;52.38;94543.88;5041993;28;20029;-90
2022/09/24 02:16:47;;;;;;;6.28;0.90;;;;;;;14.59;52.46;94535.47;5042276;28;20085;-90
2022/09/24 02:19:16;;;;;;;3.95;1.10;;;;;;;14.86;52.10;94537.47;5041809;28;20364;-90
2022/09/24 02:21:43;;;;;;;5.53;1.20;;;;;;;14.86;53.37;94528.75;5025706;28;20052;-90
2022/09/24 02:24:18;;;;;;;3.70;1.13;;;;;;;14.95;52.50;94540.97;5025721;28;20417;-91
2022/09/24 02:26:44;;;;;;;3.63;1.08;;;;;;;14.98;51.64;94534.34;5025647;28;20040;-89
2022/09/24 02:29:09;;;;;;;3.50;1.13;;;;;;;15.01;53.35;94535.63;5025398;28;20033;-90
2022/09/24 02:31:42;;;;;;;2.30;1.13;;;;;;;15.09;54.24;94538.38;5025155;28;20453;-91
2022/09/24 02:34:20;;;;;;;2.00;1.07;;;;;;;15.15;53.84;94536.44;5025590;28;20381;-91
2022/09/24 02:36:50;;;;;;;2.78;1.08;;;;;;;14.97;54.10;94538.06;5025392;28;20039;-91
2022/09/24 02:39:16;;;;;;;1.27;1.05;;;;;;;14.65;55.47;94539.63;5025253;28;20432;-90
2022/09/24 02:41:46;;;;;;;2.88;1.30;;;;;;;14.34;55.93;94545.34;5041616;28;20124;-90
2022/09/24 02:44:13;;;;;;;1.92;1.00;;;;;;;14.38;57.34;94543.72;5041973;28;20036;-90
2022/09/24 02:46:40;;;;;;;1.85;1.08;;;;;;;14.17;55.99;94551.13;5041323;28;20025;-91
2022/09/24 02:49:06;;;;;;;2.00;1.02;;;;;;;14.14;56.23;94541.94;5041269;28;20120;-90
2022/09/24 02:51:31;;;;;;;1.42;0.90;;;;;;;14.39;54.84;94537.38;5024964;28;20031;-91
2022/09/24 02:53:57;;;;;;;1.25;0.93;;;;;;;14.52;54.61;94535.84;5041215;28;20111;-90
2022/09/24 02:56:22;;;;;;;1.48;0.95;;;;;;;14.57;54.06;94528.66;5024805;28;20035;-91
2022/09/24 02:58:48;;;;;;;1.67;0.80;;;;;;;14.65;55.85;94521.16;5041328;28;20405;-91
2022/09/24 03:01:13;;;;;;;1.58;0.80;;;;;;;14.58;54.37;94524.16;5041119;28;20029;-90
2022/09/24 03:03:39;;;;;;;2.53;1.15;;;;;;;14.69;53.37;94516.88;5025056;28;20426;-90
2022/09/24 03:06:05;;;;;;;1.77;1.05;;;;;;;14.64;55.76;94519.59;5024676;28;20032;-91
2022/09/24 03:08:31;;;;;;;2.50;1.00;;;;;;;14.63;55.43;94504.81;5024532;28;20078;-90
2022/09/24 03:10:56;;;;;;;3.45;1.10;;;;;;;14.50;56.47;94509.78;5040888;28;20033;-91
2022/09/24 03:13:22;;;;;;;3.45;1.10;;;;;;;14.42;58.16;94507.81;5040860;28;20449;-91
2022/09/24 03:15:47;;;;;;;1.35;0.90;;;;;;;14.24;58.66;94504.13;5024460;28;20029;-91
2022/09/24 03:18:13;;;;;;;1.90;1.05;;;;;;;14.05;60.05;94504.91;5040802;28;20032;-90
2022/09/24 03:20:39;;;;;;;2.42;1.23;;;;;;;13.73;62.00;94497.72;5024302;28;20087;-91
2022/09/24 03:23:04;;;;;;;1.88;1.20;;;;;;;13.56;63.79;94491.88;5040748;28;20052;-91
2022/09/24 03:25:30;;;;;;;3.63;1.50;;;;;;;13.84;62.57;94504.41;5024202;28;20119;-90
2022/09/24 03:27:55;;;;;;;6.10;1.10;;;;;;;13.66;61.97;94498.84;5024165;28;20346;-91
2022/09/24 03:33:35;;;;;;;6.07;1.65;;;;;;;13.64;62.73;94495.72;4928099;29;20205;-90
2022/09/24 03:36:06;;;;;;;3.45;1.23;;;;;;;13.82;62.50;94496.03;4939493;29;20043;-90
2022/09/24 03:38:32;;;;;;;2.10;1.20;;;;;;;13.92;61.28;94503.00;4990018;28;20119;-90
2022/09/24 03:40:58;;;;;;;3.90;1.30;;;;;;;13.97;59.77;94490.53;5023603;28;20029;-90
2022/09/24 03:43:24;;;;;;;2.05;1.15;;;;;;;13.98;61.50;94492.09;5040229;28;20389;-90
2022/09/24 03:45:50;;;;;;;1.50;0.90;;;;;;;14.02;62.10;94484.41;5023905;28;20083;-90
2022/09/24 03:48:17;;;;;;;1.52;1.05;;;;;;;14.14;61.83;94483.97;5039094;28;20101;-90
2022/09/24 03:50:42;;;;;;;1.48;1.02;;;;;;;14.02;63.93;94489.69;5023626;28;20037;-90
2022/09/24 03:53:08;;;;;;;1.60;1.15;;;;;;;14.19;63.18;94491.03;5040105;28;20036;-90
2022/09/24 03:55:34;;;;;;;5.53;1.42;;;;;;;14.23;62.34;94490.16;5023794;28;20438;-90
2022/09/24 03:58:07;;;;;;;1.90;1.30;;;;;;;14.53;59.40;94482.84;5039957;28;20036;-90
2022/09/24 04:00:32;;;;;;;1.77;1.00;;;;;;;14.64;61.04;94480.81;5039830;28;20472;-91
2022/09/24 04:02:58;;;;;;;6.75;1.67;;;;;;;14.52;62.10;94483.91;5023590;28;20115;-91
2022/09/24 04:05:23;;;;;;;2.55;1.30;;;;;;;15.06;61.01;94480.91;5023285;28;20205;-91
2022/09/24 04:08:00;;;;;;;2.35;1.00;;;;;;;15.83;56.14;94473.28;5057246;28;20033;-91
2022/09/24 04:10:28;;;;;;;2.00;0.90;;;;;;;15.99;56.04;94472.22;5040330;28;20115;-91
2022/09/24 04:12:54;;;;;;;4.65;1.00;;;;;;;16.28;57.94;94474.44;5023231;28;20033;-91
2022/09/24 04:15:20;;;;;;;3.45;1.10;;;;;;;16.36;60.46;94472.97;5020051;28;20434;-90
2022/09/24 04:17:50;;;;;;;3.10;1.00;;;;;;;16.54;62.59;94466.69;5019999;28;20029;-91
2022/09/24 04:20:16;;;;;;;3.47;0.98;;;;;;;16.34;64.00;94467.97;5019739;28;20027;-91
2022/09/24 04:22:42;;;;;;;0.90;0.80;;;;;;;16.33;65.80;94470.91;5021670;28;20120;-91
2022/09/24 04:25:07;;;;;;;2.08;1.10;;;;;;;16.42;66.74;94458.53;5019926;28;20124;-92
2022/09/24 04:28:00;;;;;;;2.33;1.00;;;;;;;16.54;68.08;94461.41;5019876;28;20411;-91
2022/09/24 04:30:26;;;;;;;1.38;0.88;;;;;;;16.39;69.42;94459.91;5019582;28;20454;-90
2022/09/24 04:32:52;;;;;;;2.58;0.90;;;;;;;16.51;69.00;94456.72;5019544;28;20065;-90
2022/09/24 04:35:19;;;;;;;4.85;1.50;;;;;;;15.97;73.07;94449.50;5019672;28;20029;-91
2022/09/24 04:37:45;;;;;;;4.88;1.70;;;;;;;16.33;70.02;94455.03;5003410;28;20021;-90
2022/09/24 04:40:11;;;;;;;4.80;1.60;;;;;;;16.11;68.38;94457.38;5019154;28;20116;-91
2022/09/24 04:42:38;;;;;;;2.33;1.50;;;;;;;15.85;65.60;94459.78;5019479;28;20060;-91
2022/09/24 04:45:06;;;;;;;2.35;1.35;;;;;;;15.83;66.24;94467.25;5019627;28;20021;-91
2022/09/24 04:47:32;;;;;;;4.03;1.33;;;;;;;15.55;67.51;94459.38;5003319;28;20029;-92
2022/09/24 04:49:59;;;;;;;4.28;1.40;;;;;;;15.19;74.51;94458.22;5018957;28;20032;-91
2022/09/24 04:52:28;;;;;;;2.88;1.20;;;;;;;15.07;76.09;94453.47;5019584;28;20477;-91
2022/09/24 04:54:55;;;;;;;3.40;1.23;;;;;;;15.13;74.60;94441.72;5020092;28;20065;-91
2022/09/24 04:57:21;;;;;;;1.67;1.20;;;;;;;15.23;73.19;94451.28;5019791;28;20120;-90
2022/09/24 04:59:50;;;;;;;3.35;1.60;;;;;;;15.19;71.74;94460.06;5018638;28;20025;-89
2022/09/24 05:02:16;;;;;;;2.70;1.17;;;;;;;14.85;70.26;94462.03;5019664;28;20036;-89
2022/09/24 05:04:42;;;;;;;2.38;1.65;;;;;;;14.87;72.20;94451.19;5019433;28;20021;-91
2022/09/24 05:07:08;;;;;;;2.50;1.45;;;;;;;15.02;70.15;94450.13;5022831;28;20075;-91
2022/09/24 05:09:35;;;;;;;2.78;1.55;;;;;;;15.10;69.16;94450.22;5022249;28;20358;-90
2022/09/24 05:12:02;;;;;;;2.85;1.50;;;;;;;15.19;69.68;94455.59;5022708;28;20039;-90
2022/09/24 05:14:27;;;;;;;2.53;1.20;;;;;;;15.05;70.05;94463.50;5038660;28;20029;-89
2022/09/24 05:16:52;;;;;;;2.22;1.13;;;;;;;15.30;73.65;94450.13;5022535;28;20120;-92
2022/09/24 05:19:18;;;;;;;1.92;1.08;;;;;;;15.27;78.06;94457.53;5022168;28;20020;-91
2022/09/24 05:21:45;;;;;;;1.60;1.02;;;;;;;15.45;76.63;94449.00;5022282;28;20040;-90
2022/09/24 05:24:10;;;;;;;6.70;1.20;;;;;;;15.49;73.89;94452.63;5022451;28;20040;-90
2022/09/24 05:29:20;;;;;;;4.75;1.20;;;;;;;15.55;72.92;94467.28;5041000;28;20116;-90
2022/09/24 05:31:45;;;;;;;3.75;1.05;;;;;;;15.61;69.37;94463.47;5022146;28;20346;-90
2022/09/24 05:34:10;;;;;;;3.35;1.13;;;;;;;15.68;66.93;94461.22;5022478;28;20025;-90
2022/09/24 05:36:36;;;;;;;4.25;1.10;;;;;;;15.84;66.62;94461.63;5038339;28;20029;-90
2022/09/24 05:39:02;;;;;;;1.98;1.00;;;;;;;16.02;65.10;94458.41;5022066;28;20035;-90
2022/09/24 05:41:27;;;;;;;2.47;1.25;;;;;;;16.13;65.08;94462.38;5022022;28;20033;-90
2022/09/24 05:43:58;;;;;;;1.67;1.20;;;;;;;16.09;64.11;94461.41;5022323;28;20345;-90
2022/09/24 05:46:23;;;;;;;3.45;1.13;;;;;;;16.18;66.57;94462.25;5023046;28;20102;-89
2022/09/24 05:48:48;;;;;;;4.15;1.13;;;;;;;16.39;62.24;94454.59;5038199;28;20033;-90
2022/09/24 05:51:14;;;;;;;2.03;1.35;;;;;;;16.50;61.37;94462.31;5038367;28;20511;-90
2022/09/24 05:53:39;;;;;;;1.30;0.90;;;;;;;16.39;65.28;94459.13;5038300;28;20033;-90
2022/09/24 05:56:05;;;;;;;2.55;1.15;;;;;;;16.68;65.92;94461.31;5022330;28;20029;-91
2022/09/24 05:58:30;;;;;;;1.13;0.75;;;;;;;16.85;66.66;94461.72;5022440;28;20086;-90
2022/09/24 06:00:58;;;;;;;2.03;1.00;;;;;;;16.93;66.87;94466.28;5038497;28;20418;-90
2022/09/24 06:03:24;;;;;;;1.83;1.33;;;;;;;17.05;68.51;94461.19;5038348;28;20033;-90
2022/09/24 06:05:50;;;;;;;1.65;0.77;;;;;;;16.96;66.52;94455.06;5038894;28;20337;-93
2022/09/24 06:08:17;;;;;;;2.22;1.27;;;;;;;17.07;68.68;94453.75;5022603;28;20089;-93
2022/09/24 06:10:44;;;;;;;2.28;1.05;;;;;;;17.05;65.70;94457.78;5038729;28;20040;-93
2022/09/24 06:13:10;;;;;;;1.92;1.10;;;;;;;17.27;65.96;94453.47;5025961;28;20068;-94
2022/09/24 06:15:41;;;;;;;1.73;0.80;;;;;;;17.37;65.55;94454.00;5026464;28;20118;-94
2022/09/24 06:18:07;;;;;;;3.47;1.20;;;;;;;17.31;69.41;94455.19;5026197;28;20029;-93
2022/09/24 06:20:33;;;;;;;1.48;1.05;;;;;;;17.50;67.71;94457.59;5026240;28;20052;-94
2022/09/24 06:22:58;;;;;;;5.45;1.20;;;;;;;17.17;71.69;94465.13;5025845;28;20452;-93
2022/09/24 06:25:24;;;;;;;6.60;1.40;;;;;;;17.31;69.24;94454.44;5025872;28;20036;-93
2022/09/24 06:31:11;;;;;;;1.45;1.10;;;;;;;17.26;72.74;94458.00;5059791;28;20509;-93
2022/09/24 06:33:37;;;;;;;2.95;1.15;;;;;;;17.48;76.20;94458.97;5020039;28;20025;-89
2022/09/24 06:36:03;;;;;;;1.98;1.20;;;;;;;17.73;78.37;94459.34;5021856;28;20063;-90
2022/09/24 06:38:29;;;;;;;2.13;1.15;;;;;;;17.84;73.93;94449.19;5021491;28;20030;-90
2022/09/24 06:41:03;;;;;;;3.35;1.33;;;;;;;17.94;70.26;94447.03;5005195;28;20090;-89
2022/09/24 06:43:29;;;;;;;4.35;1.25;;;;;;;18.10;71.34;94457.22;5021840;28;20028;-90
2022/09/24 06:45:56;;;;;;;2.30;1.20;;;;;;;18.15;73.37;94465.00;5012220;28;20040;-89
2022/09/24 06:48:22;;;;;;;1.63;1.17;;;;;;;18.39;74.11;94469.03;5025017;28;20048;-90
2022/09/24 06:50:47;;;;;;;4.20;1.13;;;;;;;18.45;78.35;94473.06;5024680;28;20366;-89
2022/09/24 06:53:14;;;;;;;2.00;1.13;;;;;;;18.48;72.60;94474.31;5041421;28;20032;-90
2022/09/24 06:55:43;;;;;;;2.28;1.30;;;;;;;17.91;76.96;94484.75;5025249;28;20025;-91
2022/09/24 06:58:14;;;;;;;3.08;1.20;;;;;;;18.14;77.94;94473.25;5041340;28;20037;-91
2022/09/24 07:00:40;;;;;;;2.42;1.13;;;;;;;18.33;82.97;94480.88;5024552;28;20075;-90
2022/09/24 07:03:06;;;;;;;4.78;1.10;;;;;;;18.85;79.32;94481.88;5014284;28;20095;-90
2022/09/24 07:05:33;;;;;;;3.40;1.50;;;;;;;19.46;73.42;94480.88;5005021;28;20033;-91
2022/09/24 07:07:58;;;;;;;1.98;1.05;;;;;;;19.71;67.66;94483.72;5020953;28;20439;-89
2022/09/24 07:10:26;;;;;;;4.22;1.30;;;;;;;20.32;66.71;94480.63;5021158;28;20055;-89
2022/09/24 07:12:54;;;;;;;2.67;1.35;;;;;;;20.54;63.98;94489.34;5005447;28;20029;-90
2022/09/24 07:15:20;;;;;;;3.53;1.20;;;;;;;20.15;65.63;94492.19;5005645;28;20116;-92
2022/09/24 07:17:45;;;;;;;3.80;1.27;;;;;;;20.28;66.43;94485.03;5004809;28;20120;-93
2022/09/24 07:20:11;;;;;;;1.33;1.10;;;;;;;20.72;66.20;94481.97;5004919;28;20485;-92
2022/09/24 07:22:39;;;;;;;2.70;1.02;;;;;;;20.84;61.59;94481.25;5004810;28;20453;-91
2022/09/24 07:25:07;;;;;;;1.63;0.80;;;;;;;20.20;62.11;94486.66;5004750;28;20315;-91
2022/09/24 07:27:33;;;;;;;1.48;1.02;;;;;;;20.99;61.18;94479.06;5020863;28;20029;-92
2022/09/24 07:29:58;;;;;;;2.65;1.02;;;;;;;20.89;62.19;94478.41;5004548;28;20315;-91
2022/09/24 07:32:24;;;;;;;5.80;1.33;;;;;;;20.45;64.55;94486.78;5004938;28;20035;-92
2022/09/24 07:34:49;;;;;;;3.45;1.10;;;;;;;21.03;64.70;94483.41;5004782;28;20030;-91
2022/09/24 07:40:37;;;;;;;3.72;0.95;;;;;;;20.87;62.42;94483.28;5038276;28;20036;-92
2022/09/24 07:43:03;;;;;;;2.08;0.98;;;;;;;20.02;64.54;94485.25;5020897;28;20025;-91
2022/09/24 07:45:30;;;;;;;2.08;1.10;;;;;;;20.40;63.04;94486.19;5023749;28;20086;-91
2022/09/24 07:48:03;;;;;;;1.52;1.00;;;;;;;20.23;60.89;94489.78;5040263;28;20342;-90
2022/09/24 07:50:30;;;;;;;;;;;;;;;20.75;60.56;94489.31;5040488;28;20442;-90
2022/09/24 07:52:56;;;;;;;1.65;1.10;;;;;;;20.76;64.12;94488.19;5023763;28;20265;-92
2022/09/24 07:55:22;;;;;;;3.13;1.02;;;;;;;21.02;61.79;94491.75;5040527;28;20040;-91
2022/09/24 07:57:49;;;;;;;3.65;1.10;;;;;;;21.02;64.84;94481.84;5023539;28;20033;-89
2022/09/24 08:00:16;;;;;;;2.00;1.10;;;;;;;21.13;66.37;94481.41;5058409;28;20025;-90
2022/09/24 08:02:43;;;;;;;1.52;1.00;;;;;;;21.14;59.07;94488.31;5023908;28;20039;-91
2022/09/24 08:05:09;;;;;;;5.10;0.90;;;;;;;20.98;62.76;94485.50;5023847;28;20029;-91
2022/09/24 08:07:34;;;;;;;2.33;0.80;;;;;;;21.22;62.44;94495.41;5039701;28;20123;-90
2022/09/24 08:10:00;;;;;;;4.18;0.98;;;;;;;21.44;62.76;94494.19;5040471;28;20131;-91
2022/09/24 08:12:26;;;;;;;4.97;1.00;;;;;;;21.45;62.62;94492.31;5023388;28;20025;-91
2022/09/24 08:14:52;;;;;;;1.35;0.93;;;;;;;21.32;62.68;94494.97;5039793;28;20056;-91
2022/09/24 08:18:02;;;;;;;1.40;0.70;;;;;;;21.47;61.75;94496.19;5039698;28;20128;-91
2022/09/24 08:20:36;;;;;;;2.08;1.20;;;;;;;21.12;55.95;94490.53;5057334;28;20036;-90
2022/09/24 08:23:03;;;;;;;0.95;0.65;;;;;;;21.32;58.30;94488.88;5039626;28;20025;-90
2022/09/24 08:25:29;;;;;;;1.58;0.85;;;;;;;21.45;60.54;94497.63;5023305;28;20056;-91
2022/09/24 08:27:54;;;;;;;5.38;0.88;;;;;;;21.38;54.59;94508.09;5023224;28;20422;-90
2022/09/24 08:30:20;;;;;;;6.03;0.90;;;;;;;20.86;57.19;94505.66;5039575;28;20074;-91
2022/09/24 08:32:47;;;;;;;1.63;0.88;;;;;;;21.19;59.42;94496.06;5039848;28;20132;-92
2022/09/24 08:35:14;;;;;;;1.63;1.02;;;;;;;20.69;59.18;94501.28;5022840;28;20028;-91
2022/09/24 08:37:40;;;;;;;1.67;0.85;;;;;;;20.38;56.22;94501.72;5023240;28;20354;-89
2022/09/24 08:40:06;;;;;;;1.33;0.82;;;;;;;20.00;55.84;94498.09;5039825;28;20028;-92
2022/09/24 08:42:48;;;;;;;3.08;0.93;;;;;;;20.35;53.57;94513.78;5023291;28;20025;-92
2022/09/24 08:48:07;;;;;;;3.58;1.13;;;;;;;20.75;52.88;94512.50;5041914;28;20507;-90
2022/09/24 08:50:33;;;;;;;1.85;1.10;;;;;;;19.78;54.32;94510.56;5023103;28;20048;-90
2022/09/24 08:53:11;;;;;;;1.70;0.95;;;;;;;21.14;52.83;94504.28;5038990;28;20082;-90
2022/09/24 08:55:39;;;;;;;3.33;1.10;;;;;;;20.24;53.59;94502.00;5038997;28;20430;-92
2022/09/24 08:58:13;;;;;;;4.05;0.77;;;;;;;19.47;53.32;94512.47;5039220;28;20025;-90
2022/09/24 09:00:47;;;;;;;2.38;1.00;;;;;;;20.02;52.63;94504.66;5039139;28;20430;-91
2022/09/24 09:03:42;;;;;;;1.55;0.75;;;;;;;19.40;53.35;94504.19;5039048;28;20107;-89
2022/09/24 09:06:35;;;;;;;1.10;0.82;;;;;;;19.40;53.80;94504.19;5039194;28;20029;-92
2022/09/24 09:09:13;;;;;;;3.40;0.90;;;;;;;19.66;54.15;94490.00;5038863;28;20183;-91
2022/09/24 09:11:41;;;;;;;2.13;1.02;;;;;;;20.05;52.96;94497.91;5022613;28;20392;-90
2022/09/24 09:14:51;;;;;;;1.85;1.00;;;;;;;20.97;51.14;94495.38;5022443;28;20021;-89
2022/09/24 09:17:22;;;;;;;4.05;1.60;;;;;;;20.34;52.83;94483.75;4993250;28;20127;-90
2022/09/24 09:19:56;;;;;;;2.35;1.13;;;;;;;21.52;50.66;94483.75;5038788;28;20025;-90
2022/09/24 09:22:29;;;;;;;2.50;1.25;;;;;;;21.16;49.12;94491.41;5038460;28;20052;-89
2022/09/24 09:24:58;;;;;;;3.07;1.10;;;;;;;21.23;48.67;94488.19;5022594;28;20063;-88
2022/09/24 09:27:24;;;;;;;2.20;0.90;;;;;;;21.33;49.16;94491.19;5022414;28;20032;-88
2022/09/24 09:29:58;;;;;;;2.67;1.40;;;;;;;21.13;51.46;94492.84;5038774;28;20033;-88
2022/09/24 09:32:35;;;;;;;2.33;0.95;;;;;;;20.75;49.08;94494.63;5019223;28;20127;-88
2022/09/24 09:35:14;;;;;;;3.08;1.10;;;;;;;21.60;48.01;94477.53;5019189;28;20021;-88
2022/09/24 09:37:59;;;;;;;1.90;1.30;;;;;;;21.98;46.88;94480.94;5018947;28;20080;-89
2022/09/24 09:40:39;;;;;;;2.63;1.13;;;;;;;22.03;46.63;94478.03;5002691;28;20017;-88
2022/09/24 09:43:10;;;;;;;2.22;1.10;;;;;;;22.28;48.34;94480.63;5019027;28;20032;-88
2022/09/24 09:46:12;;;;;;;1.90;0.88;;;;;;;22.16;47.18;94479.56;5003909;28;20079;-89
2022/09/24 09:48:44;;;;;;;1.90;1.05;;;;;;;21.97;48.15;94482.06;5007868;28;20116;-89
2022/09/24 09:51:21;;;;;;;2.20;1.20;;;;;;;21.41;52.67;94486.09;5022465;28;20079;-89
2022/09/24 09:54:00;;;;;;;2.45;1.20;;;;;;;22.19;54.32;94475.44;5006014;28;20040;-88
2022/09/24 09:56:39;;;;;;;1.50;0.85;;;;;;;21.30;50.72;94475.88;5022771;28;20021;-89
2022/09/24 09:59:13;;;;;;;4.70;0.77;;;;;;;21.78;49.18;94472.75;5006309;28;20056;-91
2022/09/24 10:01:40;;;;;;;1.10;0.80;;;;;;;21.62;49.58;94464.66;5022875;28;20026;-89
2022/09/24 10:04:22;;;;;;;2.88;1.00;;;;;;;20.98;47.68;94462.31;5039359;28;20028;-90
2022/09/24 10:06:47;;;;;;;1.08;0.80;;;;;;;21.16;47.72;94464.78;5022695;28;20124;-89
2022/09/24 10:09:16;;;;;;;1.83;0.70;;;;;;;21.07;58.07;94458.75;5006267;28;20179;-90
2022/09/24 10:11:42;;;;;;;1.10;0.70;;;;;;;20.99;58.67;94455.88;5022672;28;20036;-91
2022/09/24 10:14:15;;;;;;;1.55;1.20;;;;;;;20.82;66.58;94464.84;5006243;28;20385;-90
2022/09/24 10:16:43;;;;;;;2.97;1.02;;;;;;;20.98;74.36;94459.66;5022092;28;20108;-91
2022/09/24 10:19:16;;;;;;;2.65;0.90;;;;;;;21.23;67.91;94454.34;5006078;28;20023;-88
2022/09/24 10:21:41;;;;;;;0.93;0.77;;;;;;;21.27;60.04;94444.56;5022410;28;20045;-90
2022/09/24 10:24:15;;;;;;;2.92;1.00;;;;;;;20.87;75.74;94448.66;5005975;28;20303;-89
2022/09/24 10:26:41;;;;;;;;;;;;;;;20.99;75.65;94450.56;5022909;28;20037;-89
2022/09/24 10:32:20;;;;;;;4.47;0.90;;;;;;;19.72;78.41;94472.75;5024756;28;20171;-90
2022/09/24 10:34:55;;;;;;;4.03;1.30;;;;;;;19.12;67.40;94475.41;5022152;28;20120;-89
2022/09/24 10:37:21;;;;;;;2.85;1.63;;;;;;;19.27;74.82;94474.09;5039602;28;20133;-89
2022/09/24 10:39:57;;;;;;;8.45;1.80;;;;;;;19.14;67.78;94475.09;5037814;28;20029;-90
2022/09/24 10:42:25;;;;;;;4.30;1.65;;;;;;;18.66;69.62;94480.38;5041483;28;20055;-91
2022/09/24 10:44:50;;;;;;;5.70;1.90;;;;;;;19.26;69.84;94483.19;5017006;28;20132;-90
2022/09/24 10:47:25;;;;;;;4.20;1.40;;;;;;;18.68;78.16;94493.31;5037333;28;20055;-91
2022/09/24 10:49:53;;;;;;;4.30;1.20;;;;;;;18.82;88.52;94495.81;5044649;28;20051;-89
2022/09/24 10:52:43;;;;;;;5.03;1.40;;;;;;;18.60;100.00;94492.25;5061294;28;20452;-90
2022/09/24 10:55:45;;;;;;;3.90;1.52;;;;;;;18.62;100.00;94474.13;5078984;28;20035;-89
2022/09/24 10:58:37;;;;;;;3.47;1.80;;;;;;;18.36;100.00;94464.34;5044529;28;20339;-89
2022/09/24 11:01:06;;;;;;;4.68;1.83;;;;;;;18.91;100.00;94467.34;5061185;28;20390;-90
2022/09/24 11:03:41;;;;;;;6.05;2.30;;;;;;;19.39;100.00;94468.09;5037435;28;20041;-89
2022/09/24 11:06:54;;;;;;;3.45;2.00;;;;;;;18.63;100.00;94468.53;5040838;28;20025;-88
2022/09/24 11:09:34;;;;;;;4.80;1.90;;;;;;;19.69;100.00;94452.13;5039959;28;20120;-90
2022/09/24 11:12:07;;;;;;;3.88;1.65;;;;;;;20.19;100.00;94452.44;5058944;28;20029;-89
2022/09/24 11:15:03;;;;;;;3.77;1.73;;;;;;;20.43;100.00;94451.75;5058928;28;20082;-89
2022/09/24 11:17:53;;;;;;;3.33;2.10;;;;;;;20.33;84.68;94439.63;5040941;28;20083;-90
2022/09/24 11:20:34;;;;;;;3.97;2.00;;;;;;;20.34;95.06;94437.72;5058786;28;20033;-90
2022/09/24 11:23:22;;;;;;;3.60;1.98;;;;;;;20.03;92.81;94433.63;5041149;28;20036;-88
2022/09/24 11:26:39;;;;;;;6.97;2.63;;;;;;;19.21;100.00;94438.19;5024867;28;20032;-89
2022/09/24 11:29:16;;;;;;;2.90;1.83;;;;;;;20.02;100.00;94429.41;4986776;28;20041;-90
2022/09/24 11:32:03;;;;;;;2.95;2.10;;;;;;;20.24;100.00;94436.25;5040741;28;20029;-90
2022/09/24 11:34:37;;;;;;;5.95;2.15;;;;;;;20.22;100.00;94432.38;5041347;28;20037;-90
2022/09/24 11:37:18;;;;;;;4.20;1.98;;;;;;;20.59;100.00;94422.63;5024390;28;20032;-89
2022/09/24 11:39:55;;;;;;;3.40;1.90;;;;;;;21.19;100.00;94422.25;5040729;28;20096;-89
2022/09/24 11:42:26;;;;;;;3.97;2.10;;;;;;;19.52;100.00;94420.38;5040459;28;20039;-90
2022/09/24 11:44:58;;;;;;;2.67;1.40;;;;;;;20.56;100.00;94423.25;5006239;28;20033;-89
2022/09/24 11:47:30;;;;;;;3.33;1.73;;;;;;;20.68;100.00;94429.72;5020634;28;20447;-89
2022/09/24 11:49:55;;;;;;;4.97;1.73;;;;;;;21.08;100.00;94420.34;5037704;28;20034;-89
2022/09/24 11:52:36;;;;;;;3.15;1.58;;;;;;;21.76;100.00;94421.66;5038128;28;20083;-89
2022/09/24 11:55:20;;;;;;;4.40;1.67;;;;;;;21.22;100.00;94420.81;5004300;28;20036;-89
2022/09/24 11:58:20;;;;;;;4.63;1.95;;;;;;;22.18;100.00;94418.63;5020264;28;20037;-89
2022/09/24 12:01:40;;;;;;;3.08;1.58;;;;;;;21.43;100.00;94425.25;5004496;28;20029;-90
2022/09/24 12:04:16;;;;;;;2.75;1.55;;;;;;;22.06;93.17;94420.56;4966916;28;20362;-90
2022/09/24 12:06:46;;;;;;;2.13;1.38;;;;;;;22.16;94.39;94422.72;5020144;28;20030;-89
2022/09/24 12:09:33;;;;;;;6.50;1.65;;;;;;;22.07;94.68;94425.53;5036486;28;20041;-89
2022/09/24 12:12:07;;;;;;;2.13;1.40;;;;;;;22.71;79.00;94420.38;5020182;28;20339;-89
2022/09/24 12:14:42;;;;;;;;;;;;;;;21.85;87.58;94413.50;5038585;28;20037;-90